sensor_id;sensor_type;location;lat;lon;timestamp;pressure;altitude;pressure_sealevel;temperature;humidity
58919;BME280;44704;50.122;19.932;2023-01-24T00:00:39;100195.90;;;0.95;100.00
58919;BME280;44704;50.122;19.932;2023-01-24T00:03:18;100193.05;;;0.95;100.00
58919;BME280;44704;50.122;19.932;2023-01-24T00:05:46;100195.52;;;0.96;100.00
58919;BME280;44704;50.122;19.932;2023-01-24T00:08:15;100195.38;;;0.95;100.00
58919;BME280;44704;50.122;19.932;2023-01-24T00:10:45;100194.69;;;0.95;100.00
58919;BME280;44704;50.122;19.932;2023-01-24T00:13:14;100189.98;;;0.96;100.00
58919;BME280;44704;50.122;19.932;2023-01-24T00:15:41;100188.20;;;0.96;100.00
58919;BME280;44704;50.122;19.932;2023-01-24T00:18:08;100189.61;;;0.96;100.00
58919;BME280;44704;50.122;19.932;2023-01-24T00:20:35;100187.23;;;0.97;100.00
58919;BME280;44704;50.122;19.932;2023-01-24T00:23:02;100186.23;;;0.95;100.00
58919;BME280;44704;50.122;19.932;2023-01-24T00:25:29;100186.05;;;0.96;100.00
58919;BME280;44704;50.122;19.932;2023-01-24T00:27:56;100187.02;;;0.95;100.00
58919;BME280;44704;50.122;19.932;2023-01-24T00:30:24;100190.73;;;0.95;100.00
58919;BME280;44704;50.122;19.932;2023-01-24T00:32:51;100198.95;;;0.95;100.00
58919;BME280;44704;50.122;19.932;2023-01-24T00:35:18;100200.54;;;0.96;100.00
58919;BME280;44704;50.122;19.932;2023-01-24T00:37:45;100203.87;;;0.97;100.00
58919;BME280;44704;50.122;19.932;2023-01-24T00:40:12;100200.37;;;0.96;100.00
58919;BME280;44704;50.122;19.932;2023-01-24T00:42:39;100200.70;;;0.96;100.00
58919;BME280;44704;50.122;19.932;2023-01-24T00:45:06;100198.34;;;0.97;100.00
58919;BME280;44704;50.122;19.932;2023-01-24T00:47:33;100201.55;;;0.97;100.00
58919;BME280;44704;50.122;19.932;2023-01-24T00:50:00;100200.27;;;0.97;100.00
58919;BME280;44704;50.122;19.932;2023-01-24T00:52:27;100201.30;;;0.98;100.00
58919;BME280;44704;50.122;19.932;2023-01-24T00:54:54;100202.74;;;0.97;100.00
58919;BME280;44704;50.122;19.932;2023-01-24T00:57:22;100204.55;;;0.97;100.00
58919;BME280;44704;50.122;19.932;2023-01-24T00:59:50;100206.18;;;0.97;100.00
58919;BME280;44704;50.122;19.932;2023-01-24T01:02:17;100208.75;;;0.96;100.00
58919;BME280;44704;50.122;19.932;2023-01-24T01:04:44;100207.29;;;0.96;100.00
58919;BME280;44704;50.122;19.932;2023-01-24T01:07:11;100210.16;;;0.96;100.00
58919;BME280;44704;50.122;19.932;2023-01-24T01:09:38;100205.88;;;0.96;100.00
58919;BME280;44704;50.122;19.932;2023-01-24T01:12:05;100205.34;;;0.96;100.00
58919;BME280;44704;50.122;19.932;2023-01-24T01:14:32;100208.73;;;0.96;100.00
58919;BME280;44704;50.122;19.932;2023-01-24T01:16:59;100207.30;;;0.96;100.00
58919;BME280;44704;50.122;19.932;2023-01-24T01:19:26;100205.26;;;0.97;100.00
58919;BME280;44704;50.122;19.932;2023-01-24T01:21:53;100207.91;;;0.98;100.00
58919;BME280;44704;50.122;19.932;2023-01-24T01:24:20;100212.68;;;0.98;100.00
58919;BME280;44704;50.122;19.932;2023-01-24T01:26:47;100212.25;;;0.99;100.00
58919;BME280;44704;50.122;19.932;2023-01-24T01:29:14;100212.75;;;0.99;100.00
58919;BME280;44704;50.122;19.932;2023-01-24T01:31:41;100213.95;;;1.00;100.00
58919;BME280;44704;50.122;19.932;2023-01-24T01:34:10;100217.08;;;1.01;100.00
58919;BME280;44704;50.122;19.932;2023-01-24T01:36:37;100214.45;;;1.00;100.00
58919;BME280;44704;50.122;19.932;2023-01-24T01:39:03;100219.96;;;1.00;100.00
58919;BME280;44704;50.122;19.932;2023-01-24T01:41:31;100217.02;;;1.01;100.00
58919;BME280;44704;50.122;19.932;2023-01-24T01:47:30;100219.44;;;1.03;100.00
58919;BME280;44704;50.122;19.932;2023-01-24T01:52:34;100219.21;;;1.03;100.00
58919;BME280;44704;50.122;19.932;2023-01-24T01:55:13;100225.20;;;1.04;100.00
58919;BME280;44704;50.122;19.932;2023-01-24T01:57:41;100225.11;;;1.05;100.00
58919;BME280;44704;50.122;19.932;2023-01-24T02:00:22;100221.92;;;1.07;100.00
58919;BME280;44704;50.122;19.932;2023-01-24T02:02:59;100222.56;;;1.05;100.00
58919;BME280;44704;50.122;19.932;2023-01-24T02:05:50;100230.36;;;1.06;100.00
58919;BME280;44704;50.122;19.932;2023-01-24T02:08:22;100229.00;;;1.05;100.00
58919;BME280;44704;50.122;19.932;2023-01-24T02:10:50;100225.11;;;1.05;100.00
58919;BME280;44704;50.122;19.932;2023-01-24T02:13:37;100221.83;;;1.04;100.00
58919;BME280;44704;50.122;19.932;2023-01-24T02:16:12;100218.35;;;1.03;100.00
58919;BME280;44704;50.122;19.932;2023-01-24T02:18:42;100216.36;;;1.03;100.00
58919;BME280;44704;50.122;19.932;2023-01-24T02:21:18;100215.83;;;1.03;100.00
58919;BME280;44704;50.122;19.932;2023-01-24T02:23:56;100209.91;;;1.01;100.00
58919;BME280;44704;50.122;19.932;2023-01-24T02:26:27;100216.19;;;1.01;100.00
58919;BME280;44704;50.122;19.932;2023-01-24T02:28:58;100217.39;;;1.01;100.00
58919;BME280;44704;50.122;19.932;2023-01-24T02:31:26;100217.13;;;1.02;100.00
58919;BME280;44704;50.122;19.932;2023-01-24T02:33:53;100217.83;;;1.03;100.00
58919;BME280;44704;50.122;19.932;2023-01-24T02:38:54;100211.59;;;1.02;100.00
58919;BME280;44704;50.122;19.932;2023-01-24T02:41:28;100207.68;;;1.02;100.00
58919;BME280;44704;50.122;19.932;2023-01-24T02:43:59;100207.91;;;1.01;100.00
58919;BME280;44704;50.122;19.932;2023-01-24T02:46:30;100205.31;;;1.00;100.00
58919;BME280;44704;50.122;19.932;2023-01-24T02:48:57;100209.94;;;1.01;100.00
58919;BME280;44704;50.122;19.932;2023-01-24T02:51:24;100214.44;;;1.02;100.00
58919;BME280;44704;50.122;19.932;2023-01-24T02:54:09;100216.95;;;1.02;100.00
58919;BME280;44704;50.122;19.932;2023-01-24T02:56:36;100215.97;;;1.01;100.00
58919;BME280;44704;50.122;19.932;2023-01-24T02:59:22;100216.78;;;1.02;100.00
58919;BME280;44704;50.122;19.932;2023-01-24T03:01:50;100218.85;;;1.03;100.00
58919;BME280;44704;50.122;19.932;2023-01-24T03:04:17;100220.96;;;1.03;100.00
58919;BME280;44704;50.122;19.932;2023-01-24T03:06:44;100221.61;;;1.02;100.00
58919;BME280;44704;50.122;19.932;2023-01-24T03:09:11;100223.77;;;1.02;100.00
58919;BME280;44704;50.122;19.932;2023-01-24T03:11:49;100223.77;;;1.02;100.00
58919;BME280;44704;50.122;19.932;2023-01-24T03:14:17;100223.13;;;1.01;100.00
58919;BME280;44704;50.122;19.932;2023-01-24T03:17:03;100225.77;;;1.02;100.00
58919;BME280;44704;50.122;19.932;2023-01-24T03:19:49;100227.28;;;1.01;100.00
58919;BME280;44704;50.122;19.932;2023-01-24T03:22:35;100223.98;;;1.00;100.00
58919;BME280;44704;50.122;19.932;2023-01-24T03:25:21;100231.48;;;1.00;100.00
58919;BME280;44704;50.122;19.932;2023-01-24T03:28:06;100230.92;;;1.00;100.00
58919;BME280;44704;50.122;19.932;2023-01-24T03:30:52;100232.58;;;1.00;100.00
58919;BME280;44704;50.122;19.932;2023-01-24T03:33:38;100233.29;;;1.00;100.00
58919;BME280;44704;50.122;19.932;2023-01-24T03:36:24;100232.78;;;0.99;100.00
58919;BME280;44704;50.122;19.932;2023-01-24T03:38:58;100231.01;;;0.99;100.00
58919;BME280;44704;50.122;19.932;2023-01-24T03:41:44;100234.51;;;1.00;100.00
58919;BME280;44704;50.122;19.932;2023-01-24T03:44:11;100230.80;;;0.99;100.00
58919;BME280;44704;50.122;19.932;2023-01-24T03:46:38;100232.58;;;0.99;100.00
58919;BME280;44704;50.122;19.932;2023-01-24T03:49:08;100232.55;;;1.00;100.00
58919;BME280;44704;50.122;19.932;2023-01-24T03:51:37;100235.21;;;1.00;100.00
58919;BME280;44704;50.122;19.932;2023-01-24T03:54:23;100235.14;;;1.01;100.00
58919;BME280;44704;50.122;19.932;2023-01-24T03:56:55;100234.93;;;1.01;100.00
58919;BME280;44704;50.122;19.932;2023-01-24T03:59:22;100239.43;;;1.03;100.00
58919;BME280;44704;50.122;19.932;2023-01-24T04:01:49;100233.55;;;1.04;100.00
58919;BME280;44704;50.122;19.932;2023-01-24T04:04:24;100232.30;;;1.05;100.00
58919;BME280;44704;50.122;19.932;2023-01-24T04:07:11;100229.45;;;1.04;100.00
58919;BME280;44704;50.122;19.932;2023-01-24T04:09:39;100224.60;;;1.05;100.00
58919;BME280;44704;50.122;19.932;2023-01-24T04:12:06;100221.78;;;1.04;100.00
58919;BME280;44704;50.122;19.932;2023-01-24T04:14:33;100226.89;;;1.05;100.00
58919;BME280;44704;50.122;19.932;2023-01-24T04:17:05;100222.57;;;1.05;100.00
58919;BME280;44704;50.122;19.932;2023-01-24T04:19:40;100225.40;;;1.06;100.00
58919;BME280;44704;50.122;19.932;2023-01-24T04:22:08;100224.30;;;1.06;100.00
58919;BME280;44704;50.122;19.932;2023-01-24T04:24:36;100226.73;;;1.07;100.00
58919;BME280;44704;50.122;19.932;2023-01-24T04:27:03;100223.33;;;1.07;100.00
58919;BME280;44704;50.122;19.932;2023-01-24T04:29:39;100223.21;;;1.08;100.00
58919;BME280;44704;50.122;19.932;2023-01-24T04:32:07;100220.45;;;1.09;100.00
58919;BME280;44704;50.122;19.932;2023-01-24T04:35:00;100219.41;;;1.10;100.00
58919;BME280;44704;50.122;19.932;2023-01-24T04:38:02;100221.22;;;1.10;100.00
58919;BME280;44704;50.122;19.932;2023-01-24T04:40:45;100220.99;;;1.09;100.00
58919;BME280;44704;50.122;19.932;2023-01-24T04:43:12;100225.58;;;1.08;100.00
58919;BME280;44704;50.122;19.932;2023-01-24T04:45:40;100223.02;;;1.06;100.00
58919;BME280;44704;50.122;19.932;2023-01-24T04:48:09;100229.31;;;1.06;100.00
58919;BME280;44704;50.122;19.932;2023-01-24T04:50:35;100232.42;;;1.05;100.00
58919;BME280;44704;50.122;19.932;2023-01-24T04:53:03;100227.78;;;1.05;100.00
58919;BME280;44704;50.122;19.932;2023-01-24T04:55:30;100235.09;;;1.05;100.00
58919;BME280;44704;50.122;19.932;2023-01-24T04:57:57;100236.86;;;1.06;100.00
58919;BME280;44704;50.122;19.932;2023-01-24T05:00:24;100238.13;;;1.05;100.00
58919;BME280;44704;50.122;19.932;2023-01-24T05:02:51;100242.52;;;1.06;100.00
58919;BME280;44704;50.122;19.932;2023-01-24T05:05:19;100239.52;;;1.08;100.00
58919;BME280;44704;50.122;19.932;2023-01-24T05:07:46;100236.45;;;1.08;100.00
58919;BME280;44704;50.122;19.932;2023-01-24T05:10:15;100241.42;;;1.08;100.00
58919;BME280;44704;50.122;19.932;2023-01-24T05:12:42;100244.18;;;1.07;100.00
58919;BME280;44704;50.122;19.932;2023-01-24T05:15:16;100245.02;;;1.06;100.00
58919;BME280;44704;50.122;19.932;2023-01-24T05:17:44;100247.02;;;1.04;100.00
58919;BME280;44704;50.122;19.932;2023-01-24T05:20:12;100249.42;;;1.03;100.00
58919;BME280;44704;50.122;19.932;2023-01-24T05:22:40;100248.70;;;1.03;100.00
58919;BME280;44704;50.122;19.932;2023-01-24T05:25:06;100244.06;;;1.03;100.00
58919;BME280;44704;50.122;19.932;2023-01-24T05:27:33;100248.63;;;1.04;100.00
58919;BME280;44704;50.122;19.932;2023-01-24T05:30:02;100254.28;;;1.05;100.00
58919;BME280;44704;50.122;19.932;2023-01-24T05:32:30;100252.48;;;1.05;100.00
58919;BME280;44704;50.122;19.932;2023-01-24T05:34:57;100254.25;;;1.05;100.00
58919;BME280;44704;50.122;19.932;2023-01-24T05:37:24;100252.17;;;1.04;100.00
58919;BME280;44704;50.122;19.932;2023-01-24T05:39:51;100253.71;;;1.03;100.00
58919;BME280;44704;50.122;19.932;2023-01-24T05:42:18;100252.70;;;1.03;100.00
58919;BME280;44704;50.122;19.932;2023-01-24T05:44:46;100251.48;;;1.04;100.00
58919;BME280;44704;50.122;19.932;2023-01-24T05:47:13;100251.60;;;1.05;100.00
58919;BME280;44704;50.122;19.932;2023-01-24T05:49:42;100250.87;;;1.05;100.00
58919;BME280;44704;50.122;19.932;2023-01-24T05:52:10;100252.21;;;1.06;100.00
58919;BME280;44704;50.122;19.932;2023-01-24T05:54:48;100253.83;;;1.06;100.00
58919;BME280;44704;50.122;19.932;2023-01-24T05:57:41;100255.48;;;1.07;100.00
58919;BME280;44704;50.122;19.932;2023-01-24T06:00:11;100253.52;;;1.07;100.00
58919;BME280;44704;50.122;19.932;2023-01-24T06:03:04;100261.43;;;1.07;100.00
58919;BME280;44704;50.122;19.932;2023-01-24T06:05:31;100259.16;;;1.08;100.00
58919;BME280;44704;50.122;19.932;2023-01-24T06:07:58;100261.23;;;1.09;100.00
58919;BME280;44704;50.122;19.932;2023-01-24T06:10:25;100263.77;;;1.10;100.00
58919;BME280;44704;50.122;19.932;2023-01-24T06:13:02;100261.89;;;1.11;100.00
58919;BME280;44704;50.122;19.932;2023-01-24T06:15:29;100268.77;;;1.12;100.00
58919;BME280;44704;50.122;19.932;2023-01-24T06:17:57;100270.00;;;1.13;100.00
58919;BME280;44704;50.122;19.932;2023-01-24T06:20:24;100273.50;;;1.12;100.00
58919;BME280;44704;50.122;19.932;2023-01-24T06:22:53;100281.20;;;1.11;100.00
58919;BME280;44704;50.122;19.932;2023-01-24T06:25:24;100280.19;;;1.13;100.00
58919;BME280;44704;50.122;19.932;2023-01-24T06:27:52;100280.75;;;1.12;100.00
58919;BME280;44704;50.122;19.932;2023-01-24T06:30:20;100282.81;;;1.11;100.00
58919;BME280;44704;50.122;19.932;2023-01-24T06:33:01;100289.57;;;1.12;100.00
58919;BME280;44704;50.122;19.932;2023-01-24T06:38:21;100288.05;;;1.13;100.00
58919;BME280;44704;50.122;19.932;2023-01-24T06:40:56;100289.52;;;1.13;100.00
58919;BME280;44704;50.122;19.932;2023-01-24T06:43:23;100289.62;;;1.11;100.00
58919;BME280;44704;50.122;19.932;2023-01-24T06:45:50;100290.25;;;1.10;100.00
58919;BME280;44704;50.122;19.932;2023-01-24T06:48:18;100289.42;;;1.10;100.00
58919;BME280;44704;50.122;19.932;2023-01-24T06:50:45;100293.96;;;1.11;100.00
58919;BME280;44704;50.122;19.932;2023-01-24T06:53:12;100293.70;;;1.10;100.00
58919;BME280;44704;50.122;19.932;2023-01-24T06:55:44;100294.90;;;1.10;100.00
58919;BME280;44704;50.122;19.932;2023-01-24T06:58:12;100303.48;;;1.10;100.00
58919;BME280;44704;50.122;19.932;2023-01-24T07:00:39;100301.56;;;1.10;100.00
58919;BME280;44704;50.122;19.932;2023-01-24T07:03:07;100304.67;;;1.09;100.00
58919;BME280;44704;50.122;19.932;2023-01-24T07:05:35;100310.67;;;1.10;100.00
58919;BME280;44704;50.122;19.932;2023-01-24T07:08:03;100308.69;;;1.10;100.00
58919;BME280;44704;50.122;19.932;2023-01-24T07:10:31;100310.36;;;1.11;100.00
58919;BME280;44704;50.122;19.932;2023-01-24T07:12:58;100312.02;;;1.13;100.00
58919;BME280;44704;50.122;19.932;2023-01-24T07:15:25;100313.71;;;1.14;100.00
58919;BME280;44704;50.122;19.932;2023-01-24T07:17:52;100315.27;;;1.13;100.00
58919;BME280;44704;50.122;19.932;2023-01-24T07:20:19;100318.31;;;1.12;100.00
58919;BME280;44704;50.122;19.932;2023-01-24T07:22:46;100318.38;;;1.12;100.00
58919;BME280;44704;50.122;19.932;2023-01-24T07:25:17;100319.73;;;1.13;100.00
58919;BME280;44704;50.122;19.932;2023-01-24T07:27:45;100315.40;;;1.13;100.00
58919;BME280;44704;50.122;19.932;2023-01-24T07:30:12;100318.61;;;1.13;100.00
58919;BME280;44704;50.122;19.932;2023-01-24T07:32:40;100320.90;;;1.13;100.00
58919;BME280;44704;50.122;19.932;2023-01-24T07:35:07;100324.34;;;1.15;100.00
58919;BME280;44704;50.122;19.932;2023-01-24T07:37:34;100328.16;;;1.17;100.00
58919;BME280;44704;50.122;19.932;2023-01-24T07:40:01;100330.03;;;1.18;100.00
58919;BME280;44704;50.122;19.932;2023-01-24T07:42:28;100333.05;;;1.20;100.00
58919;BME280;44704;50.122;19.932;2023-01-24T07:44:55;100332.60;;;1.21;100.00
58919;BME280;44704;50.122;19.932;2023-01-24T07:47:23;100336.81;;;1.22;100.00
58919;BME280;44704;50.122;19.932;2023-01-24T07:49:52;100339.11;;;1.22;100.00
58919;BME280;44704;50.122;19.932;2023-01-24T07:52:19;100343.68;;;1.23;100.00
58919;BME280;44704;50.122;19.932;2023-01-24T07:54:46;100342.95;;;1.23;100.00
58919;BME280;44704;50.122;19.932;2023-01-24T07:57:13;100343.26;;;1.24;100.00
58919;BME280;44704;50.122;19.932;2023-01-24T07:59:42;100343.83;;;1.23;100.00
58919;BME280;44704;50.122;19.932;2023-01-24T08:02:10;100347.10;;;1.25;100.00
58919;BME280;44704;50.122;19.932;2023-01-24T08:04:38;100351.00;;;1.25;100.00
58919;BME280;44704;50.122;19.932;2023-01-24T08:07:05;100348.83;;;1.25;100.00
58919;BME280;44704;50.122;19.932;2023-01-24T08:09:45;100351.52;;;1.26;100.00
58919;BME280;44704;50.122;19.932;2023-01-24T08:12:12;100351.56;;;1.25;100.00
58919;BME280;44704;50.122;19.932;2023-01-24T08:14:39;100348.17;;;1.25;100.00
58919;BME280;44704;50.122;19.932;2023-01-24T08:17:06;100349.92;;;1.25;100.00
58919;BME280;44704;50.122;19.932;2023-01-24T08:19:33;100353.71;;;1.27;100.00
58919;BME280;44704;50.122;19.932;2023-01-24T08:22:02;100355.84;;;1.29;100.00
58919;BME280;44704;50.122;19.932;2023-01-24T08:24:29;100356.91;;;1.31;100.00
58919;BME280;44704;50.122;19.932;2023-01-24T08:26:56;100359.95;;;1.33;100.00
58919;BME280;44704;50.122;19.932;2023-01-24T08:29:23;100365.13;;;1.35;100.00
58919;BME280;44704;50.122;19.932;2023-01-24T08:31:50;100364.13;;;1.37;100.00
58919;BME280;44704;50.122;19.932;2023-01-24T08:34:17;100364.64;;;1.39;100.00
58919;BME280;44704;50.122;19.932;2023-01-24T08:36:44;100368.30;;;1.42;100.00
58919;BME280;44704;50.122;19.932;2023-01-24T08:39:11;100369.09;;;1.45;100.00
58919;BME280;44704;50.122;19.932;2023-01-24T08:41:38;100367.88;;;1.47;100.00
58919;BME280;44704;50.122;19.932;2023-01-24T08:44:05;100376.46;;;1.46;100.00
58919;BME280;44704;50.122;19.932;2023-01-24T08:46:31;100374.19;;;1.46;100.00
58919;BME280;44704;50.122;19.932;2023-01-24T08:48:58;100376.05;;;1.47;100.00
58919;BME280;44704;50.122;19.932;2023-01-24T08:51:25;100377.55;;;1.48;100.00
58919;BME280;44704;50.122;19.932;2023-01-24T08:53:52;100379.05;;;1.49;100.00
58919;BME280;44704;50.122;19.932;2023-01-24T08:56:19;100380.63;;;1.50;100.00
58919;BME280;44704;50.122;19.932;2023-01-24T08:58:46;100378.23;;;1.50;100.00
58919;BME280;44704;50.122;19.932;2023-01-24T09:01:13;100378.20;;;1.51;100.00
58919;BME280;44704;50.122;19.932;2023-01-24T09:03:40;100375.44;;;1.52;100.00
58919;BME280;44704;50.122;19.932;2023-01-24T09:06:08;100378.63;;;1.52;100.00
58919;BME280;44704;50.122;19.932;2023-01-24T09:08:37;100380.83;;;1.54;100.00
58919;BME280;44704;50.122;19.932;2023-01-24T09:11:06;100380.92;;;1.55;100.00
58919;BME280;44704;50.122;19.932;2023-01-24T09:13:35;100382.64;;;1.56;100.00
58919;BME280;44704;50.122;19.932;2023-01-24T09:16:02;100382.73;;;1.57;100.00
58919;BME280;44704;50.122;19.932;2023-01-24T09:18:37;100382.23;;;1.58;100.00
58919;BME280;44704;50.122;19.932;2023-01-24T09:21:04;100379.76;;;1.59;100.00
58919;BME280;44704;50.122;19.932;2023-01-24T09:23:31;100376.63;;;1.60;100.00
58919;BME280;44704;50.122;19.932;2023-01-24T09:25:58;100379.98;;;1.61;100.00
58919;BME280;44704;50.122;19.932;2023-01-24T09:28:25;100380.52;;;1.61;100.00
58919;BME280;44704;50.122;19.932;2023-01-24T09:30:52;100379.34;;;1.62;100.00
58919;BME280;44704;50.122;19.932;2023-01-24T09:33:19;100379.14;;;1.62;100.00
58919;BME280;44704;50.122;19.932;2023-01-24T09:35:54;100378.05;;;1.63;100.00
58919;BME280;44704;50.122;19.932;2023-01-24T09:38:25;100380.00;;;1.65;100.00
58919;BME280;44704;50.122;19.932;2023-01-24T09:43:56;100371.60;;;1.65;100.00
58919;BME280;44704;50.122;19.932;2023-01-24T09:46:46;100376.58;;;1.63;100.00
58919;BME280;44704;50.122;19.932;2023-01-24T09:49:38;100374.59;;;1.63;100.00
58919;BME280;44704;50.122;19.932;2023-01-24T09:52:13;100376.16;;;1.64;100.00
58919;BME280;44704;50.122;19.932;2023-01-24T09:54:55;100376.21;;;1.65;100.00
58919;BME280;44704;50.122;19.932;2023-01-24T09:57:34;100375.55;;;1.66;100.00
58919;BME280;44704;50.122;19.932;2023-01-24T10:00:31;100374.29;;;1.66;100.00
58919;BME280;44704;50.122;19.932;2023-01-24T10:03:00;100370.08;;;1.67;100.00
58919;BME280;44704;50.122;19.932;2023-01-24T10:05:38;100370.83;;;1.69;100.00
58919;BME280;44704;50.122;19.932;2023-01-24T10:08:34;100372.59;;;1.71;100.00
58919;BME280;44704;50.122;19.932;2023-01-24T10:16:38;100374.35;;;1.76;100.00
58919;BME280;44704;50.122;19.932;2023-01-24T10:19:17;100375.46;;;1.75;100.00
58919;BME280;44704;50.122;19.932;2023-01-24T10:24:41;100369.95;;;1.77;100.00
58919;BME280;44704;50.122;19.932;2023-01-24T10:27:20;100371.89;;;1.77;100.00
58919;BME280;44704;50.122;19.932;2023-01-24T10:30:00;100371.16;;;1.78;100.00
58919;BME280;44704;50.122;19.932;2023-01-24T10:32:33;100368.86;;;1.77;100.00
58919;BME280;44704;50.122;19.932;2023-01-24T10:35:19;100370.50;;;1.77;100.00
58919;BME280;44704;50.122;19.932;2023-01-24T10:37:50;100367.77;;;1.77;100.00
58919;BME280;44704;50.122;19.932;2023-01-24T10:40:24;100366.27;;;1.76;100.00
58919;BME280;44704;50.122;19.932;2023-01-24T10:43:06;100365.87;;;1.74;100.00
58919;BME280;44704;50.122;19.932;2023-01-24T10:51:24;100361.13;;;1.74;100.00
58919;BME280;44704;50.122;19.932;2023-01-24T10:53:55;100359.48;;;1.74;100.00
58919;BME280;44704;50.122;19.932;2023-01-24T10:56:28;100356.96;;;1.74;100.00
58919;BME280;44704;50.122;19.932;2023-01-24T10:59:08;100357.30;;;1.72;100.00
58919;BME280;44704;50.122;19.932;2023-01-24T11:01:45;100353.92;;;1.70;100.00
58919;BME280;44704;50.122;19.932;2023-01-24T11:04:35;100351.81;;;1.71;100.00
58919;BME280;44704;50.122;19.932;2023-01-24T11:07:04;100346.80;;;1.72;100.00
58919;BME280;44704;50.122;19.932;2023-01-24T11:09:33;100346.05;;;1.72;100.00
58919;BME280;44704;50.122;19.932;2023-01-24T11:12:03;100347.16;;;1.74;100.00
58919;BME280;44704;50.122;19.932;2023-01-24T11:14:33;100340.44;;;1.75;100.00
58919;BME280;44704;50.122;19.932;2023-01-24T11:17:03;100335.79;;;1.77;100.00
58919;BME280;44704;50.122;19.932;2023-01-24T11:19:36;100333.62;;;1.77;100.00
58919;BME280;44704;50.122;19.932;2023-01-24T11:22:26;100331.06;;;1.77;100.00
58919;BME280;44704;50.122;19.932;2023-01-24T11:25:02;100324.52;;;1.78;100.00
58919;BME280;44704;50.122;19.932;2023-01-24T11:27:30;100326.06;;;1.79;100.00
58919;BME280;44704;50.122;19.932;2023-01-24T11:30:13;100325.61;;;1.78;100.00
58919;BME280;44704;50.122;19.932;2023-01-24T11:35:45;100329.34;;;1.75;100.00
58919;BME280;44704;50.122;19.932;2023-01-24T11:41:02;100329.83;;;1.71;100.00
58919;BME280;44704;50.122;19.932;2023-01-24T11:52:35;100317.91;;;1.66;100.00
58919;BME280;44704;50.122;19.932;2023-01-24T11:58:23;100316.32;;;1.62;100.00
58919;BME280;44704;50.122;19.932;2023-01-24T12:01:15;100316.70;;;1.62;100.00
58919;BME280;44704;50.122;19.932;2023-01-24T12:04:03;100312.22;;;1.60;100.00
58919;BME280;44704;50.122;19.932;2023-01-24T12:09:22;100307.44;;;1.60;100.00
58919;BME280;44704;50.122;19.932;2023-01-24T12:14:41;100305.32;;;1.59;100.00
58919;BME280;44704;50.122;19.932;2023-01-24T12:17:46;100304.10;;;1.59;100.00
58919;BME280;44704;50.122;19.932;2023-01-24T12:20:30;100300.77;;;1.58;100.00
58919;BME280;44704;50.122;19.932;2023-01-24T12:23:13;100297.36;;;1.56;100.00
58919;BME280;44704;50.122;19.932;2023-01-24T12:25:44;100297.59;;;1.56;100.00
58919;BME280;44704;50.122;19.932;2023-01-24T12:28:16;100296.08;;;1.55;100.00
58919;BME280;44704;50.122;19.932;2023-01-24T12:30:52;100299.22;;;1.54;100.00
58919;BME280;44704;50.122;19.932;2023-01-24T12:34:13;100296.72;;;1.52;100.00
58919;BME280;44704;50.122;19.932;2023-01-24T12:36:43;100298.84;;;1.52;100.00
58919;BME280;44704;50.122;19.932;2023-01-24T12:39:21;100301.58;;;1.53;100.00
58919;BME280;44704;50.122;19.932;2023-01-24T12:41:58;100304.98;;;1.54;100.00
58919;BME280;44704;50.122;19.932;2023-01-24T12:44:38;100302.46;;;1.54;100.00
58919;BME280;44704;50.122;19.932;2023-01-24T12:55:22;100312.35;;;1.51;100.00
58919;BME280;44704;50.122;19.932;2023-01-24T12:57:59;100313.34;;;1.52;100.00
58919;BME280;44704;50.122;19.932;2023-01-24T13:00:38;100313.77;;;1.49;100.00
58919;BME280;44704;50.122;19.932;2023-01-24T13:03:32;100318.68;;;1.48;100.00
58919;BME280;44704;50.122;19.932;2023-01-24T13:11:22;100323.05;;;1.47;100.00
58919;BME280;44704;50.122;19.932;2023-01-24T13:14:09;100327.67;;;1.46;100.00
58919;BME280;44704;50.122;19.932;2023-01-24T13:28:07;100320.05;;;1.37;100.00
58919;BME280;44704;50.122;19.932;2023-01-24T13:30:49;100331.23;;;1.36;100.00
58919;BME280;44704;50.122;19.932;2023-01-24T13:33:30;100334.55;;;1.37;100.00
58919;BME280;44704;50.122;19.932;2023-01-24T13:36:03;100336.33;;;1.37;100.00
58919;BME280;44704;50.122;19.932;2023-01-24T13:38:41;100339.03;;;1.35;100.00
58919;BME280;44704;50.122;19.932;2023-01-24T13:41:30;100343.30;;;1.33;100.00
58919;BME280;44704;50.122;19.932;2023-01-24T13:55:00;100347.58;;;1.27;100.00
58919;BME280;44704;50.122;19.932;2023-01-24T13:57:34;100347.36;;;1.26;100.00
58919;BME280;44704;50.122;19.932;2023-01-24T14:02:42;100357.19;;;1.24;100.00
58919;BME280;44704;50.122;19.932;2023-01-24T14:07:55;100354.54;;;1.22;100.00
58919;BME280;44704;50.122;19.932;2023-01-24T14:10:41;100359.46;;;1.23;100.00
58919;BME280;44704;50.122;19.932;2023-01-24T14:24:31;100373.00;;;1.15;100.00
58919;BME280;44704;50.122;19.932;2023-01-24T14:30:00;100380.59;;;1.10;100.00
58919;BME280;44704;50.122;19.932;2023-01-24T14:32:50;100383.02;;;1.09;100.00
58919;BME280;44704;50.122;19.932;2023-01-24T14:35:21;100384.94;;;1.06;100.00
58919;BME280;44704;50.122;19.932;2023-01-24T14:37:51;100386.98;;;1.01;100.00
58919;BME280;44704;50.122;19.932;2023-01-24T14:40:24;100388.66;;;0.98;100.00
58919;BME280;44704;50.122;19.932;2023-01-24T14:43:01;100391.74;;;0.95;100.00
58919;BME280;44704;50.122;19.932;2023-01-24T14:45:31;100396.20;;;0.93;100.00
58919;BME280;44704;50.122;19.932;2023-01-24T14:48:00;100395.15;;;0.91;100.00
58919;BME280;44704;50.122;19.932;2023-01-24T14:50:31;100399.47;;;0.91;100.00
58919;BME280;44704;50.122;19.932;2023-01-24T14:53:28;100399.74;;;0.90;100.00